createdAt,value
2023-03-03T00:01:12.507Z,15.60
2023-03-03T00:03:40.575Z,15.67
2023-03-03T00:06:11.232Z,15.70
2023-03-03T00:08:39.438Z,15.80
2023-03-03T00:11:11.018Z,15.33
2023-03-03T00:13:46.689Z,15.90
2023-03-03T00:16:23.239Z,15.20
2023-03-03T00:18:51.887Z,16.90
2023-03-03T00:21:30.279Z,16.57
2023-03-03T00:24:18.483Z,17.07
2023-03-03T00:26:48.806Z,16.30
2023-03-03T00:29:41.212Z,17.37
2023-03-03T00:32:21.375Z,16.23
2023-03-03T00:34:50.127Z,16.33
2023-03-03T00:37:25.185Z,16.57
2023-03-03T00:39:53.129Z,17.00
2023-03-03T00:42:21.260Z,16.80
2023-03-03T00:44:50.400Z,18.47
2023-03-03T00:47:32.040Z,18.13
2023-03-03T00:50:34.083Z,18.27
2023-03-03T00:53:04.609Z,18.03
2023-03-03T00:55:33.823Z,19.53
2023-03-03T00:58:01.862Z,19.40
2023-03-03T01:00:35.138Z,19.80
2023-03-03T01:03:08.016Z,20.43
2023-03-03T01:05:37.123Z,20.60
2023-03-03T01:08:05.898Z,20.20
2023-03-03T01:10:36.296Z,20.30
2023-03-03T01:13:10.086Z,21.43
2023-03-03T01:15:38.230Z,20.40
2023-03-03T01:18:07.941Z,21.37
2023-03-03T01:20:36.030Z,19.83
2023-03-03T01:23:04.051Z,22.03
2023-03-03T01:25:32.022Z,21.57
2023-03-03T01:28:00.261Z,20.97
2023-03-03T01:30:28.416Z,22.23
2023-03-03T01:32:56.507Z,21.23
2023-03-03T01:35:26.054Z,21.70
2023-03-03T01:37:57.139Z,21.80
2023-03-03T01:40:27.047Z,22.43
2023-03-03T01:42:55.069Z,21.93
2023-03-03T01:45:24.736Z,21.47
2023-03-03T01:48:00.907Z,23.30
2023-03-03T01:50:36.216Z,22.27
2023-03-03T01:53:06.520Z,22.37
2023-03-03T01:55:36.780Z,22.40
2023-03-03T01:58:08.497Z,23.80
2023-03-03T02:00:38.024Z,23.33
2023-03-03T02:03:06.432Z,24.70
2023-03-03T02:05:39.628Z,21.90
2023-03-03T02:08:09.121Z,22.73
2023-03-03T02:10:37.204Z,22.90
2023-03-03T02:13:05.208Z,23.23
2023-03-03T02:15:37.107Z,23.20
2023-03-03T02:18:07.363Z,23.63
2023-03-03T02:20:50.883Z,24.80
2023-03-03T02:23:23.327Z,23.40
2023-03-03T02:26:05.787Z,24.53
2023-03-03T02:28:36.269Z,25.63
2023-03-03T02:31:13.807Z,24.17
2023-03-03T02:33:43.539Z,24.73
2023-03-03T02:36:13.846Z,25.03
2023-03-03T02:38:46.442Z,24.90
2023-03-03T02:41:19.985Z,24.93
2023-03-03T02:43:53.432Z,25.17
2023-03-03T02:46:22.193Z,24.47
2023-03-03T02:48:52.705Z,26.37
2023-03-03T02:51:20.847Z,27.13
2023-03-03T02:53:48.882Z,27.87
2023-03-03T02:56:18.300Z,26.93
2023-03-03T02:58:46.273Z,26.90
2023-03-03T03:01:14.407Z,27.67
2023-03-03T03:03:43.761Z,29.50
2023-03-03T03:06:12.221Z,28.47
2023-03-03T03:08:41.048Z,30.00
2023-03-03T03:11:09.415Z,30.43
2023-03-03T03:13:40.430Z,28.67
2023-03-03T03:16:09.281Z,29.80
2023-03-03T03:18:37.274Z,30.03
2023-03-03T03:21:09.981Z,29.47
2023-03-03T03:23:41.416Z,29.80
2023-03-03T03:26:09.782Z,31.87
2023-03-03T03:28:38.092Z,29.50
2023-03-03T03:31:11.315Z,31.10
2023-03-03T03:33:39.390Z,31.60
2023-03-03T03:36:08.979Z,31.60
2023-03-03T03:38:38.207Z,31.37
2023-03-03T03:41:08.520Z,32.87
2023-03-03T03:43:40.084Z,34.37
2023-03-03T03:46:08.886Z,33.23
2023-03-03T03:48:38.405Z,33.53
2023-03-03T03:51:07.378Z,34.60
2023-03-03T03:53:37.936Z,33.23
2023-03-03T03:56:06.698Z,36.10
2023-03-03T03:58:35.098Z,34.23
2023-03-03T04:01:08.061Z,36.47
2023-03-03T04:03:45.986Z,36.27
2023-03-03T04:06:17.725Z,34.63
2023-03-03T04:08:50.040Z,33.47
2023-03-03T04:11:23.164Z,35.37
2023-03-03T04:13:51.173Z,36.50
2023-03-03T04:16:19.258Z,37.97
2023-03-03T04:18:49.113Z,38.77
2023-03-03T04:21:18.416Z,36.93
2023-03-03T04:23:53.300Z,39.97
2023-03-03T04:26:21.617Z,39.50
2023-03-03T04:28:50.480Z,40.47
2023-03-03T04:31:20.497Z,40.07
2023-03-03T04:33:51.030Z,38.33
2023-03-03T04:36:19.246Z,42.17
2023-03-03T04:38:47.544Z,41.10
2023-03-03T04:41:15.652Z,40.23
2023-03-03T04:43:44.392Z,43.07
2023-03-03T04:46:14.142Z,39.43
2023-03-03T04:48:42.346Z,41.47
2023-03-03T04:51:12.950Z,41.37
2023-03-03T04:53:41.000Z,43.27
2023-03-03T04:56:10.936Z,41.77
2023-03-03T04:58:38.863Z,44.20
2023-03-03T05:01:14.533Z,42.00
2023-03-03T05:03:43.488Z,42.03
2023-03-03T05:06:13.158Z,42.90
2023-03-03T05:08:43.171Z,44.13
2023-03-03T05:11:11.357Z,44.03
2023-03-03T05:13:39.385Z,42.23
2023-03-03T05:16:08.090Z,43.47
2023-03-03T05:18:36.451Z,43.33
2023-03-03T05:21:04.735Z,44.53
2023-03-03T05:23:34.159Z,44.63
2023-03-03T05:26:02.142Z,44.87
2023-03-03T05:28:30.180Z,42.83
2023-03-03T05:30:58.267Z,42.90
2023-03-03T05:33:26.435Z,44.00
2023-03-03T05:35:55.571Z,45.53
2023-03-03T05:38:23.831Z,42.73
2023-03-03T05:40:54.276Z,44.90
2023-03-03T05:43:22.331Z,43.83
2023-03-03T05:45:56.169Z,44.77
2023-03-03T05:48:27.247Z,45.90
2023-03-03T05:50:55.550Z,44.40
2023-03-03T05:53:23.569Z,46.27
2023-03-03T05:55:53.185Z,44.63
2023-03-03T05:58:21.614Z,44.33
2023-03-03T06:00:49.636Z,44.53
2023-03-03T06:03:18.065Z,43.87
2023-03-03T06:05:46.273Z,44.30
2023-03-03T06:08:17.387Z,41.90
2023-03-03T06:10:45.464Z,43.37
2023-03-03T06:13:17.160Z,42.37
2023-03-03T06:15:45.480Z,43.10
2023-03-03T06:18:16.334Z,41.10
2023-03-03T06:20:44.322Z,42.30
2023-03-03T06:23:12.447Z,41.53
2023-03-03T06:25:40.842Z,43.47
2023-03-03T06:28:08.825Z,41.93
2023-03-03T06:30:38.290Z,41.23
2023-03-03T06:33:06.459Z,41.77
2023-03-03T06:35:34.540Z,40.87
2023-03-03T06:38:02.594Z,41.10
2023-03-03T06:40:30.674Z,41.83
2023-03-03T06:42:58.667Z,40.13
2023-03-03T06:45:26.613Z,39.17
2023-03-03T06:47:56.012Z,40.03
2023-03-03T06:50:24.050Z,39.67
2023-03-03T06:53:00.285Z,38.70
2023-03-03T06:55:28.334Z,37.60
2023-03-03T06:57:56.384Z,38.90
2023-03-03T07:00:26.293Z,38.23
2023-03-03T07:02:59.886Z,33.97
2023-03-03T07:05:35.536Z,30.97
2023-03-03T07:08:10.710Z,32.57
2023-03-03T07:10:40.419Z,30.90
2023-03-03T07:13:19.049Z,34.37
2023-03-03T07:15:48.456Z,30.37
2023-03-03T07:18:43.543Z,29.90
2023-03-03T07:21:18.635Z,30.53
2023-03-03T07:23:49.374Z,30.60
2023-03-03T07:26:19.034Z,31.50
2023-03-03T07:28:57.293Z,30.00
2023-03-03T07:31:33.103Z,29.83
2023-03-03T07:34:06.361Z,31.57
2023-03-03T07:36:38.006Z,31.70
2023-03-03T07:39:27.228Z,31.97
2023-03-03T07:42:04.644Z,32.10
2023-03-03T07:44:36.932Z,30.80
2023-03-03T07:47:16.718Z,30.30
2023-03-03T07:49:46.219Z,30.03
2023-03-03T07:52:32.969Z,28.87
2023-03-03T07:55:06.274Z,29.87
2023-03-03T07:57:39.893Z,30.20
2023-03-03T08:00:58.767Z,29.60
2023-03-03T08:03:26.850Z,30.90
2023-03-03T08:05:56.299Z,28.97
2023-03-03T08:08:31.307Z,29.47
2023-03-03T08:11:02.520Z,29.67
2023-03-03T08:13:38.235Z,30.33
2023-03-03T08:16:26.711Z,28.43
2023-03-03T08:18:55.157Z,28.90
2023-03-03T08:21:26.262Z,29.57
2023-03-03T08:23:54.744Z,30.30
2023-03-03T08:26:24.000Z,31.87
2023-03-03T08:28:52.338Z,33.23
2023-03-03T08:31:39.878Z,31.13
2023-03-03T08:34:08.792Z,30.33
2023-03-03T08:36:38.306Z,28.67
2023-03-03T08:39:06.752Z,28.27
2023-03-03T08:41:34.803Z,30.60
2023-03-03T08:44:04.953Z,30.03
2023-03-03T08:46:32.990Z,29.77
2023-03-03T08:49:01.113Z,29.70
2023-03-03T08:51:30.214Z,27.67
2023-03-03T08:53:59.624Z,28.13
2023-03-03T08:56:27.599Z,32.17
2023-03-03T08:59:03.388Z,29.30
2023-03-03T09:01:32.270Z,31.13
2023-03-03T09:04:06.440Z,31.60
2023-03-03T09:06:34.454Z,30.90
2023-03-03T09:09:04.728Z,32.13
2023-03-03T09:11:33.117Z,31.20
2023-03-03T09:14:07.881Z,31.47
2023-03-03T09:16:39.641Z,29.30
2023-03-03T09:19:24.952Z,29.00
2023-03-03T09:21:54.898Z,31.77
2023-03-03T09:24:28.619Z,32.90
2023-03-03T09:26:58.635Z,32.43
2023-03-03T09:29:29.178Z,31.60
2023-03-03T09:32:02.403Z,28.93
2023-03-03T09:34:39.858Z,27.73
2023-03-03T09:37:21.884Z,30.57
2023-03-03T09:39:52.470Z,31.23
2023-03-03T09:42:52.754Z,30.47
2023-03-03T09:45:41.975Z,30.77
2023-03-03T09:48:29.080Z,35.40
2023-03-03T09:51:06.820Z,33.87
2023-03-03T09:53:43.751Z,35.23
2023-03-03T09:56:18.577Z,33.13
2023-03-03T09:58:56.222Z,33.07
2023-03-03T10:01:37.855Z,35.20
2023-03-03T10:04:25.293Z,32.83
2023-03-03T10:06:57.991Z,32.00
2023-03-03T10:09:40.959Z,34.20
2023-03-03T10:12:17.466Z,33.80
2023-03-03T10:15:19.085Z,31.43
2023-03-03T10:17:52.155Z,31.13
2023-03-03T10:20:49.718Z,34.33
2023-03-03T10:23:23.302Z,36.07
2023-03-03T10:25:58.361Z,31.63
2023-03-03T10:28:46.997Z,29.83
2023-03-03T10:31:28.244Z,29.57
2023-03-03T10:34:01.010Z,25.97
2023-03-03T10:36:50.128Z,24.17
2023-03-03T10:39:29.458Z,25.67
2023-03-03T10:42:12.064Z,24.90
2023-03-03T10:44:52.878Z,24.47
2023-03-03T10:47:32.825Z,25.00
2023-03-03T10:50:13.457Z,26.17
2023-03-03T10:52:46.060Z,26.70
2023-03-03T10:55:29.163Z,29.43
2023-03-03T10:58:15.593Z,27.07
2023-03-03T11:00:47.758Z,25.40
2023-03-03T11:03:41.120Z,25.97
2023-03-03T11:06:14.677Z,28.17
2023-03-03T11:08:45.949Z,26.77
2023-03-03T11:11:20.586Z,25.57
2023-03-03T11:13:52.500Z,25.90
2023-03-03T11:16:35.378Z,27.50
2023-03-03T11:19:11.426Z,31.47
2023-03-03T11:21:43.304Z,30.43
2023-03-03T11:24:21.022Z,33.13
2023-03-03T11:27:06.859Z,34.30
2023-03-03T11:29:48.876Z,33.60
2023-03-03T11:32:28.374Z,36.10
2023-03-03T11:35:03.104Z,35.23
2023-03-03T11:37:38.111Z,37.37
2023-03-03T11:40:14.232Z,34.07
2023-03-03T11:42:52.005Z,36.60
2023-03-03T11:45:22.053Z,33.57
2023-03-03T11:47:57.375Z,34.00
2023-03-03T11:50:29.113Z,32.53
2023-03-03T11:53:22.436Z,33.10
2023-03-03T11:55:56.313Z,30.30
2023-03-03T11:58:26.557Z,33.90
2023-03-03T12:00:58.897Z,32.40
2023-03-03T12:03:31.637Z,32.90
2023-03-03T12:06:13.641Z,33.40
2023-03-03T12:08:54.538Z,34.17
2023-03-03T12:11:26.182Z,33.10
2023-03-03T12:13:58.827Z,33.10
2023-03-03T12:16:39.276Z,33.50
2023-03-03T12:19:42.646Z,35.50
2023-03-03T12:22:23.108Z,33.47
2023-03-03T12:25:14.144Z,34.60
2023-03-03T12:27:46.844Z,34.17
2023-03-03T12:30:25.133Z,34.27
2023-03-03T12:33:05.144Z,35.33
2023-03-03T12:35:38.033Z,33.23
2023-03-03T12:38:12.449Z,33.53
2023-03-03T12:40:43.571Z,34.20
2023-03-03T12:43:22.630Z,34.23
2023-03-03T12:45:57.497Z,34.57
2023-03-03T12:48:35.918Z,32.80
2023-03-03T12:51:13.812Z,31.70
2023-03-03T12:53:58.910Z,32.53
2023-03-03T12:56:32.796Z,32.17
2023-03-03T12:59:02.532Z,32.87
2023-03-03T13:01:38.541Z,31.70
2023-03-03T13:04:10.093Z,32.30
2023-03-03T13:06:41.367Z,30.97
2023-03-03T13:09:23.865Z,30.77
2023-03-03T13:12:22.024Z,31.33
2023-03-03T13:14:53.516Z,30.63
2023-03-03T13:17:27.795Z,32.73
2023-03-03T13:20:03.852Z,34.03
2023-03-03T13:22:47.291Z,32.53
2023-03-03T13:25:42.032Z,30.43
2023-03-03T13:28:15.495Z,30.77
2023-03-03T13:30:48.872Z,28.37
2023-03-03T13:33:21.038Z,28.20
2023-03-03T13:35:51.917Z,28.20
2023-03-03T13:38:22.832Z,28.97
2023-03-03T13:40:56.511Z,26.40
2023-03-03T13:43:28.153Z,24.97
2023-03-03T13:46:02.378Z,32.63
2023-03-03T13:48:39.257Z,30.87
2023-03-03T13:51:16.879Z,31.90
2023-03-03T13:53:53.901Z,31.03
2023-03-03T13:56:37.676Z,30.57
2023-03-03T13:59:15.447Z,27.37
2023-03-03T14:01:51.363Z,25.87
2023-03-03T14:04:33.056Z,24.97
2023-03-03T14:07:05.147Z,25.47
2023-03-03T14:09:51.218Z,26.40
2023-03-03T14:12:50.488Z,27.40
2023-03-03T14:15:26.234Z,26.67
2023-03-03T14:18:26.961Z,26.93
2023-03-03T14:20:57.349Z,26.73
2023-03-03T14:23:37.448Z,27.53
2023-03-03T14:26:10.213Z,28.40
2023-03-03T14:28:48.237Z,28.93
2023-03-03T14:31:19.403Z,30.00
2023-03-03T14:33:59.073Z,30.60
2023-03-03T14:36:33.165Z,29.97
2023-03-03T14:39:01.167Z,28.30
2023-03-03T14:41:43.808Z,31.47
2023-03-03T14:44:30.383Z,30.07
2023-03-03T14:47:08.529Z,30.40
2023-03-03T14:49:38.527Z,28.70
2023-03-03T14:52:22.268Z,27.83
2023-03-03T14:54:51.773Z,27.07
2023-03-03T14:57:21.079Z,27.53
2023-03-03T15:00:02.942Z,27.77
2023-03-03T15:02:38.398Z,27.97
2023-03-03T15:05:22.002Z,26.67
2023-03-03T15:07:54.979Z,27.07
2023-03-03T15:10:32.275Z,28.87
2023-03-03T15:13:00.527Z,27.93
2023-03-03T15:15:30.921Z,25.53
2023-03-03T15:18:04.162Z,28.57
2023-03-03T15:20:40.322Z,27.00
2023-03-03T15:23:15.878Z,29.50
2023-03-03T15:25:53.794Z,29.53
2023-03-03T15:28:59.374Z,29.43
2023-03-03T15:31:38.278Z,29.33
2023-03-03T15:34:23.098Z,28.47
2023-03-03T15:36:59.318Z,29.43
2023-03-03T15:39:33.043Z,30.23
2023-03-03T15:42:05.948Z,28.70
2023-03-03T15:44:42.606Z,33.07
2023-03-03T15:47:39.707Z,32.43
2023-03-03T15:50:25.690Z,32.47
2023-03-03T15:53:00.986Z,31.63
2023-03-03T15:55:39.223Z,33.73
2023-03-03T15:58:22.363Z,33.23
2023-03-03T16:01:00.457Z,34.13
2023-03-03T16:03:35.181Z,33.47
2023-03-03T16:06:07.289Z,34.63
2023-03-03T16:08:45.943Z,36.13
2023-03-03T16:11:17.448Z,33.47
2023-03-03T16:13:59.416Z,34.57
2023-03-03T16:16:37.926Z,36.80
2023-03-03T16:19:19.805Z,34.57
2023-03-03T16:22:11.082Z,37.57
2023-03-03T16:24:46.552Z,39.73
2023-03-03T16:27:19.093Z,41.87
2023-03-03T16:29:59.713Z,43.10
2023-03-03T16:32:32.646Z,43.23
2023-03-03T16:35:24.120Z,42.47
2023-03-03T16:37:59.782Z,44.93
2023-03-03T16:40:31.621Z,43.43
2023-03-03T16:43:09.315Z,45.20
2023-03-03T16:45:39.545Z,46.27
2023-03-03T16:48:23.141Z,44.07
2023-03-03T16:51:17.166Z,44.63
2023-03-03T16:53:53.531Z,43.10
2023-03-03T16:56:28.375Z,44.33
2023-03-03T16:59:37.922Z,43.60
2023-03-03T17:02:20.379Z,43.33
2023-03-03T17:04:50.089Z,43.67
2023-03-03T17:07:35.522Z,43.30
2023-03-03T17:10:09.646Z,43.63
2023-03-03T17:12:48.671Z,44.93
2023-03-03T17:15:40.042Z,43.77
2023-03-03T17:18:14.024Z,44.77
2023-03-03T17:20:48.440Z,45.87
2023-03-03T17:23:36.346Z,47.00
2023-03-03T17:26:16.668Z,47.20
2023-03-03T17:28:52.107Z,45.90
2023-03-03T17:31:24.905Z,47.07
2023-03-03T17:34:03.740Z,46.87
2023-03-03T17:36:39.231Z,46.97
2023-03-03T17:39:33.273Z,48.43
2023-03-03T17:42:06.032Z,49.83
2023-03-03T17:44:41.921Z,46.67
2023-03-03T17:47:12.546Z,47.87
2023-03-03T17:50:12.942Z,47.57
2023-03-03T17:52:54.297Z,46.27
2023-03-03T17:55:46.355Z,47.27
2023-03-03T17:58:32.958Z,48.70
2023-03-03T18:01:08.103Z,47.07
2023-03-03T18:04:02.833Z,48.07
2023-03-03T18:07:01.414Z,49.63
2023-03-03T18:09:43.594Z,48.10
2023-03-03T18:12:17.330Z,48.67
2023-03-03T18:15:10.718Z,50.23
2023-03-03T18:17:47.690Z,49.63
2023-03-03T18:20:28.213Z,51.60
2023-03-03T18:22:56.433Z,51.87
2023-03-03T18:25:26.169Z,50.63
2023-03-03T18:28:17.084Z,52.63
2023-03-03T18:31:04.933Z,53.40
2023-03-03T18:33:44.251Z,53.50
2023-03-03T18:36:17.034Z,54.07
2023-03-03T18:38:48.037Z,54.63
2023-03-03T18:41:24.085Z,54.40
2023-03-03T18:44:04.613Z,53.60
2023-03-03T18:46:59.915Z,56.20
2023-03-03T18:49:53.973Z,54.83
2023-03-03T18:52:26.737Z,55.20
2023-03-03T18:55:29.833Z,57.07
2023-03-03T18:58:29.682Z,56.33
2023-03-03T19:01:01.293Z,57.93
2023-03-03T19:03:34.962Z,59.43
2023-03-03T19:06:03.639Z,59.63
2023-03-03T19:08:45.620Z,59.30
2023-03-03T19:11:33.352Z,61.53
2023-03-03T19:14:20.846Z,62.77
2023-03-03T19:16:52.819Z,59.40
2023-03-03T19:19:22.205Z,59.23
2023-03-03T19:21:53.473Z,62.23
2023-03-03T19:24:31.536Z,62.57
2023-03-03T19:27:05.997Z,61.63
2023-03-03T19:30:00.377Z,59.83
2023-03-03T19:32:39.006Z,60.30
2023-03-03T19:35:18.781Z,58.47
2023-03-03T19:37:53.173Z,58.83
2023-03-03T19:40:26.531Z,58.87
2023-03-03T19:43:01.698Z,59.40
2023-03-03T19:45:50.798Z,60.00
2023-03-03T19:48:25.000Z,59.60
2023-03-03T19:50:56.633Z,57.80
2023-03-03T19:53:32.739Z,60.13
2023-03-03T19:56:11.395Z,57.63
2023-03-03T19:58:47.677Z,60.03
2023-03-03T20:01:19.412Z,58.73
2023-03-03T20:04:07.450Z,57.53
2023-03-03T20:06:45.389Z,59.27
2023-03-03T20:09:32.036Z,59.00
2023-03-03T20:12:14.285Z,60.53
2023-03-03T20:14:46.111Z,57.97
2023-03-03T20:17:42.110Z,60.10
2023-03-03T20:20:25.722Z,62.50
2023-03-03T20:22:58.652Z,60.47
2023-03-03T20:25:35.620Z,59.23
2023-03-03T20:28:07.805Z,61.30
2023-03-03T20:30:55.850Z,63.50
2023-03-03T20:33:39.080Z,62.10
2023-03-03T20:36:14.674Z,59.70
2023-03-03T20:38:51.334Z,59.63
2023-03-03T20:41:27.059Z,64.80
2023-03-03T20:44:04.505Z,62.17
2023-03-03T20:46:56.656Z,63.23
2023-03-03T20:49:46.814Z,63.30
2023-03-03T20:52:21.317Z,60.43
2023-03-03T20:54:56.314Z,62.40
2023-03-03T20:57:34.077Z,63.47
2023-03-03T21:00:05.353Z,64.13
2023-03-03T21:02:39.296Z,63.13
2023-03-03T21:05:15.359Z,63.00
2023-03-03T21:07:55.038Z,60.47
2023-03-03T21:10:25.361Z,60.07
2023-03-03T21:12:54.491Z,59.60
2023-03-03T21:15:28.885Z,60.13
2023-03-03T21:17:58.186Z,60.73
2023-03-03T21:20:29.543Z,61.87
2023-03-03T21:23:00.322Z,62.83
2023-03-03T21:25:49.372Z,58.70
2023-03-03T21:28:19.961Z,59.33
2023-03-03T21:31:01.797Z,62.43
2023-03-03T21:33:48.368Z,57.27
2023-03-03T21:36:18.174Z,58.53
2023-03-03T21:38:48.419Z,59.87
2023-03-03T21:41:20.351Z,61.80
2023-03-03T21:43:50.468Z,61.53
2023-03-03T21:46:19.921Z,61.53
2023-03-03T21:48:48.512Z,62.17
2023-03-03T21:51:17.287Z,59.63
2023-03-03T21:53:52.953Z,60.23
2023-03-03T21:56:21.315Z,58.90
2023-03-03T21:58:49.642Z,60.70
2023-03-03T22:01:17.850Z,59.93
2023-03-03T22:03:48.797Z,58.13
2023-03-03T22:06:17.056Z,58.57
2023-03-03T22:08:45.943Z,60.67
2023-03-03T22:11:15.703Z,58.97
2023-03-03T22:13:43.925Z,59.43
2023-03-03T22:16:13.268Z,60.67
2023-03-03T22:18:41.922Z,61.97
2023-03-03T22:21:10.216Z,59.80
2023-03-03T22:23:38.416Z,60.20
2023-03-03T22:26:07.139Z,56.57
2023-03-03T22:28:36.852Z,58.67
2023-03-03T22:31:05.145Z,59.60
2023-03-03T22:33:33.182Z,57.93
2023-03-03T22:36:01.267Z,58.40
2023-03-03T22:38:29.427Z,60.97
2023-03-03T22:40:57.503Z,59.97
2023-03-03T22:43:27.478Z,59.63
2023-03-03T22:45:57.103Z,58.13
2023-03-03T22:48:25.604Z,59.67
2023-03-03T22:50:54.152Z,60.23
2023-03-03T22:53:22.495Z,55.93
2023-03-03T22:55:50.713Z,58.07
2023-03-03T22:58:20.021Z,58.83
2023-03-03T23:00:48.859Z,58.60
2023-03-03T23:03:18.462Z,59.03
2023-03-03T23:05:46.616Z,59.17
2023-03-03T23:08:18.672Z,57.10
2023-03-03T23:10:49.652Z,57.17
2023-03-03T23:13:17.899Z,55.30
2023-03-03T23:15:46.085Z,53.80
2023-03-03T23:18:14.254Z,52.70
2023-03-03T23:20:46.082Z,52.43
2023-03-03T23:23:16.411Z,49.77
2023-03-03T23:25:44.579Z,51.13
2023-03-03T23:28:15.541Z,51.80
2023-03-03T23:30:43.857Z,51.93
2023-03-03T23:33:11.802Z,50.80
2023-03-03T23:35:42.429Z,51.83
2023-03-03T23:38:15.414Z,47.67
2023-03-03T23:40:43.813Z,49.43
2023-03-03T23:43:11.759Z,49.73
2023-03-03T23:45:39.791Z,49.17
2023-03-03T23:48:08.053Z,50.13
2023-03-03T23:50:37.373Z,50.00
2023-03-03T23:53:08.939Z,49.40
2023-03-03T23:55:38.375Z,47.60
2023-03-03T23:58:09.408Z,49.93
